Terminal Aerodrome Forecast
Issued by NWS

Home | Current Version | Previous Version | Text Only | Print | Product List | Glossary On
Versions: 1 2 3 4 5 6 7 8 9 10 11 12
000
FTUS44 KTSA 010500 RRA
TAFFYV
TAF
KFYV 010544Z 0106/0206 17014G23KT 6SM -RA OVC035
     FM010700 18011G18KT 4SM -RA OVC012
     FM010900 18010KT 4SM -RA OVC007
      TEMPO 0109/0112 2SM -RA BR OVC005
     FM011500 27013G21KT P6SM OVC012
     FM011800 29012G20KT P6SM OVC020
     FM012100 31016G23KT P6SM OVC035=

USA.gov is the U.S. government's official web portal to all federal, state and local government web resources and services.